»·PEaware :: N973SE KBFL-L88

N973SE :: KBFL-L88

FLIGHT INFORMATION

Flight Status: Arrived
Operator: Privately registered:
United States
More flights under this callsign
Pilot: Stig E. (4778)
Aircraft: Unknown
(DA62)
More flights by this aircraft type
Origin: KBFL Meadows
United States
Destination: L88 New Cuyama
United States
More flights between these airports :: More routes between these airports
Route: FASTO GMN
File this flight plan on PilotEdge
Remarks:
Altitude:
(Current/Filed)
10,500ft
Speed:
(Current/Filed)
150kts
Departed: 26-Jun-18 11:45 PM
Arrived: 27-Jun-18 12:22 AM
Distance/Time
Traveled:
43nm/0:36
Distance/Time
To Go:
Arrived

Flight Plot

Page will automatically refresh every two minutes.

Flight plan parsing failed; only flown route is shown


Map Options




Map Legend


Flown Route
Filed Route
Departure Airport
Arrival Airport
Navaid (VOR, NDB)
Fix

Horizontal Profiles

Position Reports

Time Latitude Longitude Heading Altitude Ground
Speed
26-Jun-18 23:38 35.435704 -119.052043 180 497ft 0kts
26-Jun-18 23:39 35.435372 -119.053381 242 497ft 7kts
26-Jun-18 23:40 35.434558 -119.054243 227 497ft 0kts
26-Jun-18 23:41 35.433044 -119.052985 132 497ft 19kts
26-Jun-18 23:42 35.427592 -119.046362 133 497ft 32kts
26-Jun-18 23:43 35.425629 -119.044770 252 497ft 0kts
26-Jun-18 23:44 35.425535 -119.045131 252 497ft 8kts
26-Jun-18 23:45 35.435426 -119.057870 317 767ft 89kts
26-Jun-18 23:46 35.453826 -119.081630 323 1999ft 99kts
26-Jun-18 23:47 35.464482 -119.062353 130 3255ft 112kts
26-Jun-18 23:48 35.442335 -119.035424 134 4433ft 115kts
26-Jun-18 23:49 35.419419 -119.008213 152 5615ft 116kts
26-Jun-18 23:50 35.390772 -118.992158 155 6777ft 116kts
26-Jun-18 23:51 35.366092 -118.966911 139 7933ft 118kts
26-Jun-18 23:52 35.341778 -118.940196 140 9091ft 118kts
26-Jun-18 23:53 35.317340 -118.913428 140 10243ft 118kts
26-Jun-18 23:54 35.288579 -118.882014 139 10506ft 159kts
26-Jun-18 23:55 35.250011 -118.864899 180 10500ft 165kts
26-Jun-18 23:56 35.205053 -118.864692 180 10499ft 167kts
26-Jun-18 23:57 35.159356 -118.864337 179 10532ft 166kts
26-Jun-18 23:58 35.113189 -118.863915 179 10576ft 166kts
26-Jun-18 23:59 35.067190 -118.863479 179 10621ft 165kts
27-Jun-18 00:00 35.021249 -118.863021 180 10654ft 166kts
27-Jun-18 00:01 34.974853 -118.862543 181 10654ft 168kts
27-Jun-18 00:02 34.927912 -118.862094 181 10655ft 170kts
27-Jun-18 00:03 34.880239 -118.861680 181 10656ft 174kts
27-Jun-18 00:04 34.831692 -118.861237 181 10660ft 175kts
27-Jun-18 00:05 34.806866 -118.896131 275 10643ft 166kts
27-Jun-18 00:06 34.813186 -118.952024 278 10592ft 166kts
27-Jun-18 00:07 34.819334 -119.007348 277 10552ft 166kts
27-Jun-18 00:08 34.825397 -119.063047 277 10341ft 166kts
27-Jun-18 00:09 34.831391 -119.118651 277 9992ft 165kts
27-Jun-18 00:10 34.837318 -119.174011 277 9653ft 164kts
27-Jun-18 00:11 34.843090 -119.228078 277 8898ft 163kts
27-Jun-18 00:12 34.848854 -119.282354 277 8137ft 161kts
27-Jun-18 00:13 34.854521 -119.336160 278 7390ft 160kts
27-Jun-18 00:14 34.860141 -119.389647 278 6602ft 162kts
27-Jun-18 00:15 34.865919 -119.444719 279 5722ft 164kts
27-Jun-18 00:16 34.871664 -119.499636 279 4727ft 164kts
27-Jun-18 00:17 34.889062 -119.549100 301 3743ft 149kts
27-Jun-18 00:18 34.906482 -119.583214 294 3281ft 109kts
27-Jun-18 00:19 34.913417 -119.617036 273 2959ft 101kts
27-Jun-18 00:20 34.924911 -119.648111 294 2776ft 100kts
27-Jun-18 00:21 34.936596 -119.677259 292 2292ft 87kts
27-Jun-18 00:22 34.942912 -119.690912 98 2153ft 9kts
27-Jun-18 00:23 34.942583 -119.690082 294 2157ft 0kts
27-Jun-18 00:24 34.942583 -119.690082 294 2157ft 0kts
27-Jun-18 00:25 34.942583 -119.690082 294 2157ft 0kts
27-Jun-18 00:26 34.942583 -119.690082 294 2157ft 0kts
27-Jun-18 00:27 34.942583 -119.690082 294 2157ft 0kts
27-Jun-18 00:28 34.942583 -119.690082 294 2157ft 0kts
27-Jun-18 00:29 34.942583 -119.690082 294 2157ft 0kts
27-Jun-18 00:30 34.942583 -119.690082 294 2157ft 0kts
27-Jun-18 00:31 34.942583 -119.690082 294 2157ft 0kts
27-Jun-18 00:32 34.942583 -119.690082 294 2157ft 0kts
27-Jun-18 00:33 34.942583 -119.690082 294 2157ft 0kts
27-Jun-18 00:34 34.942583 -119.690082 294 2157ft 0kts
27-Jun-18 00:35 34.942583 -119.690082 294 2157ft 0kts
27-Jun-18 00:36 34.942583 -119.690082 294 2157ft 0kts

Navigation Log

Ident Type
Flight plan parsing failed, navigation log unavailable